Terminal Aerodrome Forecast
Issued by NWS

Home | Current Version | Previous Version | Text Only | Print | Product List | Glossary On
Versions: 1 2 3 4 5 6 7 8 9 10 11 12 13 14 15 16 17 18 19 20 21 22 23 24 25 26 27
000
FTUS45 KREV 072327
TAFTRK
TAF
KTRK 072327Z 0800/0824 VRB04KT P6SM VCSH SCT070 BKN120
     FM080400 VRB03KT P6SM VCSH SCT100 BKN200
     FM082200 22008KT P6SM VCTS SCT060CB BKN090=

USA.gov is the U.S. government's official web portal to all federal, state and local government web resources and services.